sensor_id;sensor_type;location;lat;lon;timestamp;P1;durP1;ratioP1;P2;durP2;ratioP2
79371;SDS011;68914;51.262;6.802;2023-10-13T00:00:37;19.77;;;9.13;;
79371;SDS011;68914;51.262;6.802;2023-10-13T00:01:37;15.85;;;8.60;;
79371;SDS011;68914;51.262;6.802;2023-10-13T00:02:39;17.38;;;9.20;;
79371;SDS011;68914;51.262;6.802;2023-10-13T00:03:39;16.48;;;8.70;;
79371;SDS011;68914;51.262;6.802;2023-10-13T00:04:40;17.47;;;8.73;;
79371;SDS011;68914;51.262;6.802;2023-10-13T00:05:42;17.13;;;8.95;;
79371;SDS011;68914;51.262;6.802;2023-10-13T00:06:43;15.55;;;8.98;;
79371;SDS011;68914;51.262;6.802;2023-10-13T00:07:45;15.48;;;8.68;;
79371;SDS011;68914;51.262;6.802;2023-10-13T00:08:47;17.52;;;8.90;;
79371;SDS011;68914;51.262;6.802;2023-10-13T00:09:47;15.07;;;8.27;;
79371;SDS011;68914;51.262;6.802;2023-10-13T00:10:48;16.13;;;8.68;;
79371;SDS011;68914;51.262;6.802;2023-10-13T00:11:49;15.83;;;8.73;;
79371;SDS011;68914;51.262;6.802;2023-10-13T00:12:49;18.38;;;9.00;;
79371;SDS011;68914;51.262;6.802;2023-10-13T00:13:50;16.55;;;8.82;;
79371;SDS011;68914;51.262;6.802;2023-10-13T00:14:51;16.40;;;8.93;;
79371;SDS011;68914;51.262;6.802;2023-10-13T00:15:51;16.40;;;8.18;;
79371;SDS011;68914;51.262;6.802;2023-10-13T00:17:02;17.55;;;9.00;;
79371;SDS011;68914;51.262;6.802;2023-10-13T00:18:16;17.73;;;8.68;;
79371;SDS011;68914;51.262;6.802;2023-10-13T00:19:19;16.42;;;8.32;;
79371;SDS011;68914;51.262;6.802;2023-10-13T00:20:20;16.33;;;8.53;;
79371;SDS011;68914;51.262;6.802;2023-10-13T00:21:36;19.55;;;8.75;;
79371;SDS011;68914;51.262;6.802;2023-10-13T00:22:36;17.00;;;8.90;;
79371;SDS011;68914;51.262;6.802;2023-10-13T00:23:44;17.90;;;8.60;;
79371;SDS011;68914;51.262;6.802;2023-10-13T00:24:52;15.73;;;8.57;;
79371;SDS011;68914;51.262;6.802;2023-10-13T00:25:59;17.55;;;8.65;;
79371;SDS011;68914;51.262;6.802;2023-10-13T00:26:59;14.65;;;8.07;;
79371;SDS011;68914;51.262;6.802;2023-10-13T00:28:01;16.52;;;8.93;;
79371;SDS011;68914;51.262;6.802;2023-10-13T00:29:02;16.48;;;8.95;;
79371;SDS011;68914;51.262;6.802;2023-10-13T00:30:07;14.43;;;8.18;;
79371;SDS011;68914;51.262;6.802;2023-10-13T00:31:17;17.17;;;8.60;;
79371;SDS011;68914;51.262;6.802;2023-10-13T00:32:18;15.88;;;8.45;;
79371;SDS011;68914;51.262;6.802;2023-10-13T00:33:27;18.33;;;8.82;;
79371;SDS011;68914;51.262;6.802;2023-10-13T00:34:28;15.37;;;8.00;;
79371;SDS011;68914;51.262;6.802;2023-10-13T00:35:37;16.55;;;8.10;;
79371;SDS011;68914;51.262;6.802;2023-10-13T00:36:42;15.85;;;8.23;;
79371;SDS011;68914;51.262;6.802;2023-10-13T00:37:49;16.05;;;7.90;;
79371;SDS011;68914;51.262;6.802;2023-10-13T00:38:53;15.00;;;8.48;;
79371;SDS011;68914;51.262;6.802;2023-10-13T00:39:56;16.92;;;7.93;;
79371;SDS011;68914;51.262;6.802;2023-10-13T00:40:57;15.38;;;8.20;;
79371;SDS011;68914;51.262;6.802;2023-10-13T00:42:13;13.87;;;8.00;;
79371;SDS011;68914;51.262;6.802;2023-10-13T00:43:23;13.48;;;7.72;;
79371;SDS011;68914;51.262;6.802;2023-10-13T00:44:24;17.75;;;8.27;;
79371;SDS011;68914;51.262;6.802;2023-10-13T00:45:52;15.05;;;7.28;;
79371;SDS011;68914;51.262;6.802;2023-10-13T00:47:04;16.38;;;8.30;;
79371;SDS011;68914;51.262;6.802;2023-10-13T00:48:08;14.50;;;7.65;;
79371;SDS011;68914;51.262;6.802;2023-10-13T00:49:11;16.23;;;7.80;;
79371;SDS011;68914;51.262;6.802;2023-10-13T00:50:16;16.23;;;7.88;;
79371;SDS011;68914;51.262;6.802;2023-10-13T00:51:18;17.42;;;8.63;;
79371;SDS011;68914;51.262;6.802;2023-10-13T00:52:38;14.00;;;7.78;;
79371;SDS011;68914;51.262;6.802;2023-10-13T00:53:41;13.25;;;7.63;;
79371;SDS011;68914;51.262;6.802;2023-10-13T00:54:44;14.75;;;8.07;;
79371;SDS011;68914;51.262;6.802;2023-10-13T00:55:48;15.07;;;7.53;;
79371;SDS011;68914;51.262;6.802;2023-10-13T00:56:49;14.20;;;7.93;;
79371;SDS011;68914;51.262;6.802;2023-10-13T00:57:57;15.23;;;7.80;;
79371;SDS011;68914;51.262;6.802;2023-10-13T00:59:03;14.55;;;8.05;;
79371;SDS011;68914;51.262;6.802;2023-10-13T01:00:04;16.63;;;8.32;;
79371;SDS011;68914;51.262;6.802;2023-10-13T01:01:19;14.48;;;8.00;;
79371;SDS011;68914;51.262;6.802;2023-10-13T01:02:29;16.07;;;7.50;;
79371;SDS011;68914;51.262;6.802;2023-10-13T01:03:35;14.38;;;7.88;;
79371;SDS011;68914;51.262;6.802;2023-10-13T01:04:36;15.57;;;8.25;;
79371;SDS011;68914;51.262;6.802;2023-10-13T01:05:37;14.88;;;8.10;;
79371;SDS011;68914;51.262;6.802;2023-10-13T01:06:39;13.57;;;8.05;;
79371;SDS011;68914;51.262;6.802;2023-10-13T01:07:40;16.27;;;8.10;;
79371;SDS011;68914;51.262;6.802;2023-10-13T01:08:40;16.98;;;8.18;;
79371;SDS011;68914;51.262;6.802;2023-10-13T01:09:44;13.38;;;7.40;;
79371;SDS011;68914;51.262;6.802;2023-10-13T01:10:47;13.35;;;7.63;;
79371;SDS011;68914;51.262;6.802;2023-10-13T01:11:50;15.53;;;7.77;;
79371;SDS011;68914;51.262;6.802;2023-10-13T01:13:01;15.23;;;7.88;;
79371;SDS011;68914;51.262;6.802;2023-10-13T01:14:04;14.65;;;7.57;;
79371;SDS011;68914;51.262;6.802;2023-10-13T01:15:06;15.60;;;8.15;;
79371;SDS011;68914;51.262;6.802;2023-10-13T01:16:11;13.85;;;7.68;;
79371;SDS011;68914;51.262;6.802;2023-10-13T01:17:11;14.10;;;7.30;;
79371;SDS011;68914;51.262;6.802;2023-10-13T01:18:12;16.90;;;7.23;;
79371;SDS011;68914;51.262;6.802;2023-10-13T01:19:15;14.20;;;7.78;;
79371;SDS011;68914;51.262;6.802;2023-10-13T01:20:21;13.60;;;7.72;;
79371;SDS011;68914;51.262;6.802;2023-10-13T01:21:28;14.05;;;7.30;;
79371;SDS011;68914;51.262;6.802;2023-10-13T01:22:28;15.90;;;7.90;;
79371;SDS011;68914;51.262;6.802;2023-10-13T01:23:29;16.20;;;7.43;;
79371;SDS011;68914;51.262;6.802;2023-10-13T01:24:38;15.60;;;7.72;;
79371;SDS011;68914;51.262;6.802;2023-10-13T01:25:38;14.52;;;7.38;;
79371;SDS011;68914;51.262;6.802;2023-10-13T01:26:40;13.27;;;7.13;;
79371;SDS011;68914;51.262;6.802;2023-10-13T01:27:42;14.55;;;6.90;;
79371;SDS011;68914;51.262;6.802;2023-10-13T01:28:45;14.20;;;6.85;;
79371;SDS011;68914;51.262;6.802;2023-10-13T01:29:47;14.97;;;7.37;;
79371;SDS011;68914;51.262;6.802;2023-10-13T01:30:52;14.68;;;7.50;;
79371;SDS011;68914;51.262;6.802;2023-10-13T01:31:53;14.82;;;7.68;;
79371;SDS011;68914;51.262;6.802;2023-10-13T01:32:54;14.50;;;7.50;;
79371;SDS011;68914;51.262;6.802;2023-10-13T01:33:54;13.73;;;7.90;;
79371;SDS011;68914;51.262;6.802;2023-10-13T01:34:58;14.57;;;7.25;;
79371;SDS011;68914;51.262;6.802;2023-10-13T01:36:06;13.50;;;7.40;;
79371;SDS011;68914;51.262;6.802;2023-10-13T01:37:09;13.95;;;6.93;;
79371;SDS011;68914;51.262;6.802;2023-10-13T01:38:11;13.52;;;7.60;;
79371;SDS011;68914;51.262;6.802;2023-10-13T01:39:11;13.63;;;7.38;;
79371;SDS011;68914;51.262;6.802;2023-10-13T01:40:16;12.70;;;7.30;;
79371;SDS011;68914;51.262;6.802;2023-10-13T01:41:20;13.68;;;7.53;;
79371;SDS011;68914;51.262;6.802;2023-10-13T01:42:24;15.02;;;7.80;;
79371;SDS011;68914;51.262;6.802;2023-10-13T01:43:32;14.55;;;7.70;;
79371;SDS011;68914;51.262;6.802;2023-10-13T01:44:34;13.50;;;7.80;;
79371;SDS011;68914;51.262;6.802;2023-10-13T01:45:35;14.20;;;7.38;;
79371;SDS011;68914;51.262;6.802;2023-10-13T01:46:36;13.10;;;7.30;;
79371;SDS011;68914;51.262;6.802;2023-10-13T01:47:37;13.50;;;7.53;;
79371;SDS011;68914;51.262;6.802;2023-10-13T01:48:39;15.13;;;7.82;;
79371;SDS011;68914;51.262;6.802;2023-10-13T01:49:42;14.93;;;7.53;;
79371;SDS011;68914;51.262;6.802;2023-10-13T01:50:47;14.52;;;7.80;;
79371;SDS011;68914;51.262;6.802;2023-10-13T01:51:48;12.65;;;7.20;;
79371;SDS011;68914;51.262;6.802;2023-10-13T01:52:49;16.30;;;7.50;;
79371;SDS011;68914;51.262;6.802;2023-10-13T01:53:52;13.95;;;7.55;;
79371;SDS011;68914;51.262;6.802;2023-10-13T01:54:56;14.88;;;7.95;;
79371;SDS011;68914;51.262;6.802;2023-10-13T01:56:01;16.15;;;7.78;;
79371;SDS011;68914;51.262;6.802;2023-10-13T01:57:10;13.82;;;7.90;;
79371;SDS011;68914;51.262;6.802;2023-10-13T01:58:17;15.02;;;8.00;;
79371;SDS011;68914;51.262;6.802;2023-10-13T01:59:25;14.85;;;7.95;;
79371;SDS011;68914;51.262;6.802;2023-10-13T02:00:27;14.98;;;8.23;;
79371;SDS011;68914;51.262;6.802;2023-10-13T02:01:33;13.77;;;7.65;;
79371;SDS011;68914;51.262;6.802;2023-10-13T02:02:35;15.43;;;7.53;;
79371;SDS011;68914;51.262;6.802;2023-10-13T02:03:43;14.87;;;7.80;;
79371;SDS011;68914;51.262;6.802;2023-10-13T02:04:47;14.75;;;7.65;;
79371;SDS011;68914;51.262;6.802;2023-10-13T02:05:56;15.43;;;7.97;;
79371;SDS011;68914;51.262;6.802;2023-10-13T02:07:04;16.05;;;7.93;;
79371;SDS011;68914;51.262;6.802;2023-10-13T02:08:09;14.73;;;8.02;;
79371;SDS011;68914;51.262;6.802;2023-10-13T02:09:11;17.50;;;8.13;;
79371;SDS011;68914;51.262;6.802;2023-10-13T02:10:25;15.85;;;8.07;;
79371;SDS011;68914;51.262;6.802;2023-10-13T02:11:28;15.07;;;8.00;;
79371;SDS011;68914;51.262;6.802;2023-10-13T02:12:30;16.27;;;8.05;;
79371;SDS011;68914;51.262;6.802;2023-10-13T02:13:42;15.90;;;7.70;;
79371;SDS011;68914;51.262;6.802;2023-10-13T02:14:49;14.60;;;7.50;;
79371;SDS011;68914;51.262;6.802;2023-10-13T02:15:53;14.07;;;7.70;;
79371;SDS011;68914;51.262;6.802;2023-10-13T02:16:59;16.70;;;8.18;;
79371;SDS011;68914;51.262;6.802;2023-10-13T02:18:18;14.60;;;7.80;;
79371;SDS011;68914;51.262;6.802;2023-10-13T02:19:34;14.55;;;7.70;;
79371;SDS011;68914;51.262;6.802;2023-10-13T02:20:34;15.37;;;7.83;;
79371;SDS011;68914;51.262;6.802;2023-10-13T02:21:43;15.73;;;7.75;;
79371;SDS011;68914;51.262;6.802;2023-10-13T02:22:45;14.23;;;7.65;;
79371;SDS011;68914;51.262;6.802;2023-10-13T02:23:51;15.48;;;7.75;;
79371;SDS011;68914;51.262;6.802;2023-10-13T02:25:04;14.30;;;8.13;;
79371;SDS011;68914;51.262;6.802;2023-10-13T02:26:07;16.48;;;8.18;;
79371;SDS011;68914;51.262;6.802;2023-10-13T02:27:13;16.08;;;8.00;;
79371;SDS011;68914;51.262;6.802;2023-10-13T02:28:14;15.50;;;8.00;;
79371;SDS011;68914;51.262;6.802;2023-10-13T02:29:15;16.20;;;7.85;;
79371;SDS011;68914;51.262;6.802;2023-10-13T02:30:18;14.23;;;7.57;;
79371;SDS011;68914;51.262;6.802;2023-10-13T02:31:26;16.70;;;8.35;;
79371;SDS011;68914;51.262;6.802;2023-10-13T02:32:28;16.27;;;8.05;;
79371;SDS011;68914;51.262;6.802;2023-10-13T02:33:30;18.25;;;8.57;;
79371;SDS011;68914;51.262;6.802;2023-10-13T02:34:31;15.70;;;8.40;;
79371;SDS011;68914;51.262;6.802;2023-10-13T02:35:32;16.07;;;8.30;;
79371;SDS011;68914;51.262;6.802;2023-10-13T02:36:35;14.63;;;8.63;;
79371;SDS011;68914;51.262;6.802;2023-10-13T02:37:36;14.73;;;8.10;;
79371;SDS011;68914;51.262;6.802;2023-10-13T02:38:37;15.05;;;8.05;;
79371;SDS011;68914;51.262;6.802;2023-10-13T02:39:39;16.30;;;8.63;;
79371;SDS011;68914;51.262;6.802;2023-10-13T02:40:43;16.98;;;8.27;;
79371;SDS011;68914;51.262;6.802;2023-10-13T02:41:43;14.95;;;8.63;;
79371;SDS011;68914;51.262;6.802;2023-10-13T02:42:52;18.30;;;8.05;;
79371;SDS011;68914;51.262;6.802;2023-10-13T02:43:53;16.50;;;8.63;;
79371;SDS011;68914;51.262;6.802;2023-10-13T02:44:55;14.93;;;8.52;;
79371;SDS011;68914;51.262;6.802;2023-10-13T02:45:59;17.17;;;8.93;;
79371;SDS011;68914;51.262;6.802;2023-10-13T02:47:00;15.45;;;7.95;;
79371;SDS011;68914;51.262;6.802;2023-10-13T02:48:00;15.38;;;8.50;;
79371;SDS011;68914;51.262;6.802;2023-10-13T02:49:17;14.40;;;8.23;;
79371;SDS011;68914;51.262;6.802;2023-10-13T02:50:19;15.87;;;8.07;;
79371;SDS011;68914;51.262;6.802;2023-10-13T02:51:24;14.63;;;8.15;;
79371;SDS011;68914;51.262;6.802;2023-10-13T02:52:37;14.93;;;8.52;;
79371;SDS011;68914;51.262;6.802;2023-10-13T02:53:42;17.27;;;9.02;;
79371;SDS011;68914;51.262;6.802;2023-10-13T02:54:47;16.23;;;8.45;;
79371;SDS011;68914;51.262;6.802;2023-10-13T02:56:52;16.58;;;8.93;;
79371;SDS011;68914;51.262;6.802;2023-10-13T02:58:03;15.47;;;8.87;;
79371;SDS011;68914;51.262;6.802;2023-10-13T02:59:04;15.48;;;8.30;;
79371;SDS011;68914;51.262;6.802;2023-10-13T03:00:05;17.27;;;9.25;;
79371;SDS011;68914;51.262;6.802;2023-10-13T03:01:13;16.02;;;8.70;;
79371;SDS011;68914;51.262;6.802;2023-10-13T03:02:20;17.98;;;8.80;;
79371;SDS011;68914;51.262;6.802;2023-10-13T03:03:29;17.73;;;9.20;;
79371;SDS011;68914;51.262;6.802;2023-10-13T03:04:30;16.88;;;9.30;;
79371;SDS011;68914;51.262;6.802;2023-10-13T03:05:35;16.27;;;9.10;;
79371;SDS011;68914;51.262;6.802;2023-10-13T03:06:39;16.83;;;9.40;;
79371;SDS011;68914;51.262;6.802;2023-10-13T03:07:43;18.00;;;9.27;;
79371;SDS011;68914;51.262;6.802;2023-10-13T03:08:44;18.88;;;8.98;;
79371;SDS011;68914;51.262;6.802;2023-10-13T03:09:45;16.48;;;9.30;;
79371;SDS011;68914;51.262;6.802;2023-10-13T03:10:57;17.30;;;9.43;;
79371;SDS011;68914;51.262;6.802;2023-10-13T03:11:58;17.70;;;9.50;;
79371;SDS011;68914;51.262;6.802;2023-10-13T03:13:04;18.10;;;9.73;;
79371;SDS011;68914;51.262;6.802;2023-10-13T03:14:05;16.27;;;9.07;;
79371;SDS011;68914;51.262;6.802;2023-10-13T03:15:07;17.52;;;9.20;;
79371;SDS011;68914;51.262;6.802;2023-10-13T03:16:17;19.38;;;9.93;;
79371;SDS011;68914;51.262;6.802;2023-10-13T03:17:19;16.05;;;9.52;;
79371;SDS011;68914;51.262;6.802;2023-10-13T03:18:28;18.08;;;9.02;;
79371;SDS011;68914;51.262;6.802;2023-10-13T03:19:34;18.27;;;9.30;;
79371;SDS011;68914;51.262;6.802;2023-10-13T03:20:38;18.83;;;10.07;;
79371;SDS011;68914;51.262;6.802;2023-10-13T03:21:42;19.08;;;9.90;;
79371;SDS011;68914;51.262;6.802;2023-10-13T03:22:45;19.02;;;9.52;;
79371;SDS011;68914;51.262;6.802;2023-10-13T03:23:46;16.13;;;9.13;;
79371;SDS011;68914;51.262;6.802;2023-10-13T03:24:47;34.53;;;19.83;;
79371;SDS011;68914;51.262;6.802;2023-10-13T03:25:48;21.15;;;10.35;;
79371;SDS011;68914;51.262;6.802;2023-10-13T03:26:55;18.80;;;9.43;;
79371;SDS011;68914;51.262;6.802;2023-10-13T03:27:56;17.80;;;9.57;;
79371;SDS011;68914;51.262;6.802;2023-10-13T03:28:57;17.58;;;9.27;;
79371;SDS011;68914;51.262;6.802;2023-10-13T03:29:58;18.30;;;9.43;;
79371;SDS011;68914;51.262;6.802;2023-10-13T03:31:01;18.60;;;9.82;;
79371;SDS011;68914;51.262;6.802;2023-10-13T03:32:03;19.55;;;9.90;;
79371;SDS011;68914;51.262;6.802;2023-10-13T03:33:08;19.33;;;10.07;;
79371;SDS011;68914;51.262;6.802;2023-10-13T03:34:14;19.43;;;9.70;;
79371;SDS011;68914;51.262;6.802;2023-10-13T03:35:15;18.10;;;9.85;;
79371;SDS011;68914;51.262;6.802;2023-10-13T03:36:27;17.35;;;9.10;;
79371;SDS011;68914;51.262;6.802;2023-10-13T03:37:57;20.98;;;9.35;;
79371;SDS011;68914;51.262;6.802;2023-10-13T03:38:58;18.33;;;9.65;;
79371;SDS011;68914;51.262;6.802;2023-10-13T03:39:58;19.63;;;9.80;;
79371;SDS011;68914;51.262;6.802;2023-10-13T03:41:00;19.52;;;10.10;;
79371;SDS011;68914;51.262;6.802;2023-10-13T03:42:20;17.25;;;9.90;;
79371;SDS011;68914;51.262;6.802;2023-10-13T03:43:22;18.15;;;9.35;;
79371;SDS011;68914;51.262;6.802;2023-10-13T03:44:26;19.40;;;10.00;;
79371;SDS011;68914;51.262;6.802;2023-10-13T03:45:37;19.80;;;10.10;;
79371;SDS011;68914;51.262;6.802;2023-10-13T03:46:43;18.77;;;9.48;;
79371;SDS011;68914;51.262;6.802;2023-10-13T03:47:45;19.40;;;10.23;;
79371;SDS011;68914;51.262;6.802;2023-10-13T03:48:46;15.83;;;9.50;;
79371;SDS011;68914;51.262;6.802;2023-10-13T03:49:54;21.67;;;9.93;;
79371;SDS011;68914;51.262;6.802;2023-10-13T03:51:14;18.40;;;10.15;;
79371;SDS011;68914;51.262;6.802;2023-10-13T03:52:15;18.92;;;10.18;;
79371;SDS011;68914;51.262;6.802;2023-10-13T03:53:22;21.00;;;10.68;;
79371;SDS011;68914;51.262;6.802;2023-10-13T03:54:25;18.33;;;10.18;;
79371;SDS011;68914;51.262;6.802;2023-10-13T03:55:30;17.73;;;9.82;;
79371;SDS011;68914;51.262;6.802;2023-10-13T03:56:30;20.37;;;10.57;;
79371;SDS011;68914;51.262;6.802;2023-10-13T03:57:39;19.70;;;10.07;;
79371;SDS011;68914;51.262;6.802;2023-10-13T03:58:41;19.55;;;9.93;;
79371;SDS011;68914;51.262;6.802;2023-10-13T03:59:48;20.43;;;10.27;;
79371;SDS011;68914;51.262;6.802;2023-10-13T04:00:51;20.92;;;10.57;;
79371;SDS011;68914;51.262;6.802;2023-10-13T04:01:52;18.75;;;10.63;;
79371;SDS011;68914;51.262;6.802;2023-10-13T04:02:59;20.10;;;10.10;;
79371;SDS011;68914;51.262;6.802;2023-10-13T04:04:02;17.88;;;10.18;;
79371;SDS011;68914;51.262;6.802;2023-10-13T04:05:04;22.85;;;10.50;;
79371;SDS011;68914;51.262;6.802;2023-10-13T04:06:09;19.10;;;10.40;;
79371;SDS011;68914;51.262;6.802;2023-10-13T04:07:16;19.83;;;10.27;;
79371;SDS011;68914;51.262;6.802;2023-10-13T04:08:26;17.77;;;10.00;;
79371;SDS011;68914;51.262;6.802;2023-10-13T04:09:27;19.65;;;10.45;;
79371;SDS011;68914;51.262;6.802;2023-10-13T04:10:30;19.48;;;10.60;;
79371;SDS011;68914;51.262;6.802;2023-10-13T04:11:49;18.85;;;10.13;;
79371;SDS011;68914;51.262;6.802;2023-10-13T04:13:13;19.27;;;10.23;;
79371;SDS011;68914;51.262;6.802;2023-10-13T04:15:52;21.50;;;9.95;;
79371;SDS011;68914;51.262;6.802;2023-10-13T04:17:11;19.90;;;10.13;;
79371;SDS011;68914;51.262;6.802;2023-10-13T04:18:14;18.53;;;10.13;;
79371;SDS011;68914;51.262;6.802;2023-10-13T04:19:34;19.67;;;10.70;;
79371;SDS011;68914;51.262;6.802;2023-10-13T04:20:54;20.17;;;10.55;;
79371;SDS011;68914;51.262;6.802;2023-10-13T04:22:08;18.80;;;10.60;;
79371;SDS011;68914;51.262;6.802;2023-10-13T04:23:14;20.52;;;10.90;;
79371;SDS011;68914;51.262;6.802;2023-10-13T04:24:19;18.15;;;10.32;;
79371;SDS011;68914;51.262;6.802;2023-10-13T04:25:38;19.10;;;10.60;;
79371;SDS011;68914;51.262;6.802;2023-10-13T04:26:52;22.05;;;10.57;;
79371;SDS011;68914;51.262;6.802;2023-10-13T04:28:14;19.73;;;10.55;;
79371;SDS011;68914;51.262;6.802;2023-10-13T04:29:34;20.35;;;10.63;;
79371;SDS011;68914;51.262;6.802;2023-10-13T04:30:53;22.40;;;11.20;;
79371;SDS011;68914;51.262;6.802;2023-10-13T04:31:57;18.73;;;10.18;;
79371;SDS011;68914;51.262;6.802;2023-10-13T04:33:00;19.75;;;10.25;;
79371;SDS011;68914;51.262;6.802;2023-10-13T04:34:17;18.55;;;10.00;;
79371;SDS011;68914;51.262;6.802;2023-10-13T04:35:27;19.80;;;10.70;;
79371;SDS011;68914;51.262;6.802;2023-10-13T04:36:36;20.70;;;10.68;;
79371;SDS011;68914;51.262;6.802;2023-10-13T04:37:45;20.45;;;10.57;;
79371;SDS011;68914;51.262;6.802;2023-10-13T04:38:51;22.98;;;11.20;;
79371;SDS011;68914;51.262;6.802;2023-10-13T04:39:56;20.05;;;11.60;;
79371;SDS011;68914;51.262;6.802;2023-10-13T04:40:59;21.70;;;10.63;;
79371;SDS011;68914;51.262;6.802;2023-10-13T04:42:01;20.53;;;10.83;;
79371;SDS011;68914;51.262;6.802;2023-10-13T04:43:13;21.08;;;11.00;;
79371;SDS011;68914;51.262;6.802;2023-10-13T04:44:33;18.55;;;9.77;;
79371;SDS011;68914;51.262;6.802;2023-10-13T04:45:49;21.05;;;10.70;;
79371;SDS011;68914;51.262;6.802;2023-10-13T04:46:55;20.67;;;11.00;;
79371;SDS011;68914;51.262;6.802;2023-10-13T04:47:59;18.80;;;10.15;;
79371;SDS011;68914;51.262;6.802;2023-10-13T04:49:15;21.42;;;11.20;;
79371;SDS011;68914;51.262;6.802;2023-10-13T04:50:34;18.90;;;10.13;;
79371;SDS011;68914;51.262;6.802;2023-10-13T04:51:38;17.53;;;10.40;;
79371;SDS011;68914;51.262;6.802;2023-10-13T04:53:14;20.47;;;10.40;;
79371;SDS011;68914;51.262;6.802;2023-10-13T04:54:35;18.65;;;10.10;;
79371;SDS011;68914;51.262;6.802;2023-10-13T04:55:55;21.52;;;10.45;;
79371;SDS011;68914;51.262;6.802;2023-10-13T04:57:02;19.77;;;10.00;;
79371;SDS011;68914;51.262;6.802;2023-10-13T04:58:35;20.75;;;10.65;;
79371;SDS011;68914;51.262;6.802;2023-10-13T05:00:03;21.77;;;10.73;;
79371;SDS011;68914;51.262;6.802;2023-10-13T05:01:11;18.88;;;10.73;;
79371;SDS011;68914;51.262;6.802;2023-10-13T05:02:24;23.55;;;11.20;;
79371;SDS011;68914;51.262;6.802;2023-10-13T05:03:36;20.85;;;10.43;;
79371;SDS011;68914;51.262;6.802;2023-10-13T05:04:56;18.83;;;9.63;;
79371;SDS011;68914;51.262;6.802;2023-10-13T05:06:05;20.40;;;10.90;;
79371;SDS011;68914;51.262;6.802;2023-10-13T05:07:32;20.90;;;10.93;;
79371;SDS011;68914;51.262;6.802;2023-10-13T05:08:55;21.65;;;10.52;;
79371;SDS011;68914;51.262;6.802;2023-10-13T05:10:14;19.45;;;10.55;;
79371;SDS011;68914;51.262;6.802;2023-10-13T05:11:33;19.33;;;9.98;;
79371;SDS011;68914;51.262;6.802;2023-10-13T05:12:52;22.15;;;10.60;;
79371;SDS011;68914;51.262;6.802;2023-10-13T05:14:11;19.42;;;10.32;;
79371;SDS011;68914;51.262;6.802;2023-10-13T05:15:30;21.42;;;10.90;;
79371;SDS011;68914;51.262;6.802;2023-10-13T05:16:50;19.50;;;10.70;;
79371;SDS011;68914;51.262;6.802;2023-10-13T05:18:09;19.77;;;10.63;;
79371;SDS011;68914;51.262;6.802;2023-10-13T05:19:28;20.30;;;10.83;;
79371;SDS011;68914;51.262;6.802;2023-10-13T05:20:48;21.45;;;10.70;;
79371;SDS011;68914;51.262;6.802;2023-10-13T05:22:07;20.48;;;10.43;;
79371;SDS011;68914;51.262;6.802;2023-10-13T05:23:26;23.30;;;10.90;;
79371;SDS011;68914;51.262;6.802;2023-10-13T05:24:45;23.85;;;11.45;;
79371;SDS011;68914;51.262;6.802;2023-10-13T05:26:04;23.98;;;11.25;;
79371;SDS011;68914;51.262;6.802;2023-10-13T05:27:21;20.58;;;11.20;;
79371;SDS011;68914;51.262;6.802;2023-10-13T05:28:40;24.25;;;11.88;;
79371;SDS011;68914;51.262;6.802;2023-10-13T05:30:02;19.85;;;11.57;;
79371;SDS011;68914;51.262;6.802;2023-10-13T05:31:21;21.45;;;11.10;;
79371;SDS011;68914;51.262;6.802;2023-10-13T05:32:40;20.53;;;10.60;;
79371;SDS011;68914;51.262;6.802;2023-10-13T05:33:59;21.65;;;11.85;;
79371;SDS011;68914;51.262;6.802;2023-10-13T05:35:22;21.88;;;11.43;;
79371;SDS011;68914;51.262;6.802;2023-10-13T05:36:41;22.08;;;11.13;;
79371;SDS011;68914;51.262;6.802;2023-10-13T05:38:00;20.98;;;10.82;;
79371;SDS011;68914;51.262;6.802;2023-10-13T05:39:20;21.67;;;10.70;;
79371;SDS011;68914;51.262;6.802;2023-10-13T05:40:40;22.70;;;11.85;;
79371;SDS011;68914;51.262;6.802;2023-10-13T05:42:13;20.73;;;10.77;;
79371;SDS011;68914;51.262;6.802;2023-10-13T05:43:32;21.50;;;10.73;;
79371;SDS011;68914;51.262;6.802;2023-10-13T05:44:51;21.25;;;10.50;;
79371;SDS011;68914;51.262;6.802;2023-10-13T05:46:10;21.70;;;10.83;;
79371;SDS011;68914;51.262;6.802;2023-10-13T05:47:35;20.38;;;10.20;;
79371;SDS011;68914;51.262;6.802;2023-10-13T05:48:51;20.48;;;11.40;;
79371;SDS011;68914;51.262;6.802;2023-10-13T05:49:58;20.00;;;10.20;;
79371;SDS011;68914;51.262;6.802;2023-10-13T05:51:13;21.70;;;11.10;;
79371;SDS011;68914;51.262;6.802;2023-10-13T05:52:40;18.27;;;9.45;;
79371;SDS011;68914;51.262;6.802;2023-10-13T05:54:02;21.08;;;10.20;;
79371;SDS011;68914;51.262;6.802;2023-10-13T05:55:16;18.45;;;9.75;;
79371;SDS011;68914;51.262;6.802;2023-10-13T05:56:33;18.67;;;9.23;;
79371;SDS011;68914;51.262;6.802;2023-10-13T05:57:52;19.15;;;8.68;;
79371;SDS011;68914;51.262;6.802;2023-10-13T05:59:11;19.00;;;9.37;;
79371;SDS011;68914;51.262;6.802;2023-10-13T06:00:31;18.27;;;9.27;;
79371;SDS011;68914;51.262;6.802;2023-10-13T06:01:57;16.65;;;8.52;;
79371;SDS011;68914;51.262;6.802;2023-10-13T06:03:16;17.60;;;8.82;;
79371;SDS011;68914;51.262;6.802;2023-10-13T06:04:36;19.63;;;9.60;;
79371;SDS011;68914;51.262;6.802;2023-10-13T06:05:58;17.38;;;9.30;;
79371;SDS011;68914;51.262;6.802;2023-10-13T06:07:28;20.35;;;9.15;;
79371;SDS011;68914;51.262;6.802;2023-10-13T06:08:48;18.95;;;8.20;;
79371;SDS011;68914;51.262;6.802;2023-10-13T06:10:07;17.48;;;8.25;;
79371;SDS011;68914;51.262;6.802;2023-10-13T06:11:29;19.17;;;8.43;;
79371;SDS011;68914;51.262;6.802;2023-10-13T06:12:56;17.87;;;8.77;;
79371;SDS011;68914;51.262;6.802;2023-10-13T06:14:14;19.00;;;7.95;;
79371;SDS011;68914;51.262;6.802;2023-10-13T06:15:35;14.80;;;7.70;;
79371;SDS011;68914;51.262;6.802;2023-10-13T06:16:55;17.02;;;7.53;;
79371;SDS011;68914;51.262;6.802;2023-10-13T06:18:14;16.17;;;7.40;;
79371;SDS011;68914;51.262;6.802;2023-10-13T06:19:33;15.90;;;7.32;;
79371;SDS011;68914;51.262;6.802;2023-10-13T06:20:52;16.40;;;7.55;;
79371;SDS011;68914;51.262;6.802;2023-10-13T06:22:11;15.02;;;7.45;;
79371;SDS011;68914;51.262;6.802;2023-10-13T06:23:31;17.25;;;7.78;;
79371;SDS011;68914;51.262;6.802;2023-10-13T06:24:50;16.83;;;7.63;;
79371;SDS011;68914;51.262;6.802;2023-10-13T06:26:12;16.70;;;7.67;;
79371;SDS011;68914;51.262;6.802;2023-10-13T06:27:31;15.93;;;7.57;;
79371;SDS011;68914;51.262;6.802;2023-10-13T06:28:53;19.92;;;8.32;;
79371;SDS011;68914;51.262;6.802;2023-10-13T06:29:56;17.25;;;8.63;;
79371;SDS011;68914;51.262;6.802;2023-10-13T06:30:57;18.38;;;8.85;;
79371;SDS011;68914;51.262;6.802;2023-10-13T06:31:58;17.85;;;9.02;;
79371;SDS011;68914;51.262;6.802;2023-10-13T06:33:01;19.85;;;9.32;;
79371;SDS011;68914;51.262;6.802;2023-10-13T06:34:04;16.97;;;8.60;;
79371;SDS011;68914;51.262;6.802;2023-10-13T06:35:05;19.25;;;9.20;;
79371;SDS011;68914;51.262;6.802;2023-10-13T06:36:18;18.70;;;8.70;;
79371;SDS011;68914;51.262;6.802;2023-10-13T06:37:19;21.02;;;8.98;;
79371;SDS011;68914;51.262;6.802;2023-10-13T06:38:26;18.33;;;8.83;;
79371;SDS011;68914;51.262;6.802;2023-10-13T06:39:31;16.95;;;8.65;;
79371;SDS011;68914;51.262;6.802;2023-10-13T06:40:44;17.60;;;8.90;;
79371;SDS011;68914;51.262;6.802;2023-10-13T06:41:48;17.35;;;8.90;;
79371;SDS011;68914;51.262;6.802;2023-10-13T06:42:49;18.65;;;9.35;;
79371;SDS011;68914;51.262;6.802;2023-10-13T06:43:50;21.98;;;8.70;;
79371;SDS011;68914;51.262;6.802;2023-10-13T06:44:59;20.13;;;8.67;;
79371;SDS011;68914;51.262;6.802;2023-10-13T06:46:06;18.83;;;9.50;;
79371;SDS011;68914;51.262;6.802;2023-10-13T06:47:14;18.05;;;8.52;;